Andreas, Pennsylvania
Current Conditions -  °F | °C
As of 1:35 AM on Thursday 23 Oct 2014 (Local Time) from KHZL Reporting Station
Light Rain Light Rain  
Wind Chill: 37°   Ceiling: 700
Heat Index: 45°   Visibility: 10mi
Dew Point: 43°   Wind: 18mph
Humidity: 93%   Direction: 320°NW
Pressure: 29.89"   Gusts: 28mph
Location:  40.75°N, 75.79°W
Report Text: KHZL 230535Z AUTO 32016G24KT 10SM -RA OVC007 07/06 A2989 RMK AO2 LTG DSNT SE
Loading
Personal Weather Stations






























Interactive Weather Map
Tropical Storm Tracking
New forecast layout! Learn more

10-Day Weather Forecast

Advertisements
Track Severe Weather on mobile